createdAt,value
2022-10-31T00:01:25.294Z,55.08
2022-10-31T00:03:53.708Z,53.78
2022-10-31T00:06:20.993Z,53.20
2022-10-31T00:08:52.490Z,54.17
2022-10-31T00:11:19.253Z,54.28
2022-10-31T00:13:46.008Z,54.80
2022-10-31T00:16:17.870Z,56.42
2022-10-31T00:18:45.078Z,52.22
2022-10-31T00:21:11.831Z,53.80
2022-10-31T00:23:38.618Z,56.70
2022-10-31T00:26:07.859Z,54.75
2022-10-31T00:28:35.016Z,52.90
2022-10-31T00:31:02.708Z,52.55
2022-10-31T00:33:29.844Z,53.15
2022-10-31T00:35:57.041Z,52.15
2022-10-31T00:38:24.041Z,52.50
2022-10-31T00:40:50.847Z,52.85
2022-10-31T00:43:17.695Z,54.85
2022-10-31T00:45:44.613Z,52.45
2022-10-31T00:48:11.607Z,54.40
2022-10-31T00:50:38.637Z,51.42
2022-10-31T00:53:05.905Z,51.50
2022-10-31T00:55:32.636Z,51.97
2022-10-31T00:57:59.678Z,50.17
2022-10-31T01:00:27.098Z,50.03
2022-10-31T01:02:54.042Z,50.60
2022-10-31T01:05:21.257Z,49.90
2022-10-31T01:07:48.246Z,51.15
2022-10-31T01:10:15.356Z,48.38
2022-10-31T01:12:46.197Z,49.55
2022-10-31T01:15:17.055Z,49.42
2022-10-31T01:17:43.960Z,52.22
2022-10-31T01:20:13.597Z,50.17
2022-10-31T01:22:40.318Z,44.63
2022-10-31T01:25:07.755Z,47.40
2022-10-31T01:27:34.790Z,50.60
2022-10-31T01:30:01.578Z,50.25
2022-10-31T01:32:29.914Z,49.10
2022-10-31T01:34:56.765Z,50.63
2022-10-31T01:37:23.537Z,50.15
2022-10-31T01:39:50.445Z,51.40
2022-10-31T01:42:21.520Z,50.47
2022-10-31T01:44:58.833Z,52.08
2022-10-31T01:47:38.793Z,52.50
2022-10-31T01:50:13.847Z,50.45
2022-10-31T01:52:45.554Z,51.90
2022-10-31T01:55:33.843Z,52.20
2022-10-31T01:58:05.749Z,51.45
2022-10-31T02:00:32.927Z,52.20
2022-10-31T02:03:01.093Z,51.67
2022-10-31T02:05:30.642Z,52.72
2022-10-31T02:08:15.642Z,54.30
2022-10-31T02:10:44.164Z,49.38
2022-10-31T02:13:13.925Z,52.60
2022-10-31T02:15:49.890Z,52.97
2022-10-31T02:18:17.691Z,54.08
2022-10-31T02:20:59.242Z,54.85
2022-10-31T02:23:50.903Z,54.40
2022-10-31T02:26:39.270Z,54.60
2022-10-31T02:29:32.314Z,55.83
2022-10-31T02:32:27.272Z,54.05
2022-10-31T02:35:14.299Z,54.72
2022-10-31T02:38:24.177Z,53.40
2022-10-31T02:41:36.041Z,50.70
2022-10-31T02:44:56.665Z,51.35
2022-10-31T02:47:29.188Z,50.58
2022-10-31T02:50:04.247Z,46.22
2022-10-31T02:52:34.800Z,47.60
2022-10-31T02:55:34.840Z,50.67
2022-10-31T02:58:12.158Z,51.28
2022-10-31T03:01:01.521Z,51.20
2022-10-31T03:03:37.853Z,50.40
2022-10-31T03:06:33.479Z,49.63
2022-10-31T03:09:03.278Z,48.33
2022-10-31T03:11:38.547Z,48.97
2022-10-31T03:14:15.736Z,49.40
2022-10-31T03:16:47.652Z,49.75
2022-10-31T03:19:29.731Z,49.75
2022-10-31T03:22:04.399Z,48.78
2022-10-31T03:24:37.101Z,48.83
2022-10-31T03:27:08.693Z,47.65
2022-10-31T03:29:37.748Z,47.45
2022-10-31T03:32:13.652Z,45.42
2022-10-31T03:34:44.855Z,46.33
2022-10-31T03:37:15.517Z,47.65
2022-10-31T03:39:45.392Z,46.67
2022-10-31T03:42:18.655Z,42.97
2022-10-31T03:44:58.911Z,45.58
2022-10-31T03:47:27.961Z,46.85
2022-10-31T03:49:55.367Z,48.15
2022-10-31T03:52:22.135Z,48.85
2022-10-31T03:55:01.124Z,47.42
2022-10-31T03:57:45.762Z,49.10
2022-10-31T04:00:14.955Z,51.55
2022-10-31T04:03:15.762Z,54.35
2022-10-31T04:05:48.415Z,52.65
2022-10-31T04:08:20.331Z,54.00
2022-10-31T04:10:50.204Z,53.65
2022-10-31T04:13:25.245Z,51.28
2022-10-31T04:16:00.398Z,51.70
2022-10-31T04:18:27.531Z,50.38
2022-10-31T04:21:08.190Z,52.20
2022-10-31T04:23:37.008Z,52.65
2022-10-31T04:26:24.337Z,54.15
2022-10-31T04:28:51.700Z,53.28
2022-10-31T04:31:18.565Z,54.13
2022-10-31T04:33:47.996Z,55.00
2022-10-31T04:36:15.149Z,56.13
2022-10-31T04:38:42.793Z,54.47
2022-10-31T04:41:21.853Z,55.30
2022-10-31T04:43:55.187Z,55.90
2022-10-31T04:46:22.344Z,55.30
2022-10-31T04:48:49.827Z,54.83
2022-10-31T04:51:17.596Z,55.30
2022-10-31T04:53:44.706Z,56.25
2022-10-31T04:56:30.170Z,54.35
2022-10-31T04:59:03.063Z,53.55
2022-10-31T05:01:40.299Z,54.83
2022-10-31T05:04:07.228Z,53.10
2022-10-31T05:06:34.003Z,52.72
2022-10-31T05:09:00.811Z,50.30
2022-10-31T05:11:27.681Z,46.17
2022-10-31T05:13:59.988Z,48.08
2022-10-31T05:16:46.988Z,47.55
2022-10-31T05:19:52.036Z,51.95
2022-10-31T05:22:49.041Z,52.78
2022-10-31T05:25:17.108Z,51.50
2022-10-31T05:27:46.657Z,51.40
2022-10-31T05:30:16.619Z,50.83
2022-10-31T05:32:50.387Z,50.75
2022-10-31T05:35:40.516Z,50.42
2022-10-31T05:38:30.135Z,47.50
2022-10-31T05:41:03.698Z,48.05
2022-10-31T05:43:33.327Z,50.20
2022-10-31T05:46:02.342Z,50.10
2022-10-31T05:49:04.538Z,50.33
2022-10-31T05:51:49.592Z,52.90
2022-10-31T05:54:16.477Z,48.63
2022-10-31T05:56:45.736Z,48.20
2022-10-31T05:59:12.961Z,50.60
2022-10-31T06:01:40.626Z,51.92
2022-10-31T06:04:17.785Z,51.40
2022-10-31T06:06:44.800Z,50.35
2022-10-31T06:09:11.669Z,50.65
2022-10-31T06:11:38.587Z,48.55
2022-10-31T06:14:06.878Z,50.15
2022-10-31T06:16:59.970Z,54.15
2022-10-31T06:19:45.349Z,51.92
2022-10-31T06:22:19.004Z,52.53
2022-10-31T06:24:45.817Z,50.75
2022-10-31T06:27:27.552Z,46.55
2022-10-31T06:29:55.243Z,47.55
2022-10-31T06:32:31.083Z,51.80
2022-10-31T06:34:58.787Z,48.03
2022-10-31T06:37:25.742Z,48.35
2022-10-31T06:39:55.506Z,48.97
2022-10-31T06:42:22.356Z,46.45
2022-10-31T06:44:49.268Z,46.15
2022-10-31T06:48:15.587Z,46.15
2022-10-31T06:51:01.392Z,45.88
2022-10-31T06:53:30.679Z,46.25
2022-10-31T06:55:58.216Z,45.92
2022-10-31T06:58:25.894Z,45.60
2022-10-31T07:00:56.377Z,44.50
2022-10-31T07:03:23.432Z,46.40
2022-10-31T07:05:50.257Z,46.65
2022-10-31T07:08:17.110Z,46.33
2022-10-31T07:10:44.486Z,47.05
2022-10-31T07:13:14.249Z,45.97
2022-10-31T07:15:45.706Z,46.03
2022-10-31T07:18:13.652Z,46.85
2022-10-31T07:20:41.241Z,47.42
2022-10-31T07:23:12.457Z,47.95
2022-10-31T07:25:40.840Z,48.47
2022-10-31T07:28:16.029Z,48.00
2022-10-31T07:30:56.854Z,48.85
2022-10-31T07:33:24.468Z,47.05
2022-10-31T07:36:09.686Z,46.05
2022-10-31T07:38:41.326Z,47.38
2022-10-31T07:41:08.236Z,48.17
2022-10-31T07:43:40.146Z,47.03
2022-10-31T07:46:18.825Z,48.20
2022-10-31T07:49:04.005Z,47.92
2022-10-31T07:51:49.360Z,48.63
2022-10-31T07:54:34.605Z,47.97
2022-10-31T07:57:01.670Z,47.47
2022-10-31T07:59:29.282Z,48.53
2022-10-31T08:01:56.138Z,47.83
2022-10-31T08:04:31.975Z,46.08
2022-10-31T08:07:18.075Z,47.00
2022-10-31T08:09:56.048Z,47.55
2022-10-31T08:12:26.973Z,46.40
2022-10-31T08:14:54.381Z,47.22
2022-10-31T08:17:21.244Z,46.50
2022-10-31T08:19:56.453Z,46.08
2022-10-31T08:22:31.502Z,46.45
2022-10-31T08:24:59.496Z,46.38
2022-10-31T08:27:26.329Z,47.00
2022-10-31T08:29:55.742Z,47.55
2022-10-31T08:32:23.696Z,47.17
2022-10-31T08:34:53.108Z,46.25
2022-10-31T08:37:59.049Z,46.92
2022-10-31T08:40:29.493Z,49.70
2022-10-31T08:42:58.548Z,46.17
2022-10-31T08:45:25.492Z,46.80
2022-10-31T08:47:52.430Z,47.28
2022-10-31T08:50:19.548Z,48.05
2022-10-31T08:53:04.291Z,47.30
2022-10-31T08:55:36.395Z,46.75
2022-10-31T08:58:08.919Z,46.40
2022-10-31T09:00:41.992Z,46.33
2022-10-31T09:03:23.944Z,46.42
2022-10-31T09:05:51.939Z,47.75
2022-10-31T09:08:18.900Z,46.33
2022-10-31T09:10:47.941Z,48.15
2022-10-31T09:13:21.322Z,48.67
2022-10-31T09:16:08.323Z,47.55
2022-10-31T09:18:36.025Z,47.65
2022-10-31T09:21:02.907Z,48.45
2022-10-31T09:23:31.178Z,46.72
2022-10-31T09:26:02.228Z,48.60
2022-10-31T09:28:36.350Z,48.35
2022-10-31T09:31:11.860Z,46.90
2022-10-31T09:33:57.354Z,47.67
2022-10-31T09:36:36.861Z,45.53
2022-10-31T09:39:05.250Z,47.20
2022-10-31T09:41:57.528Z,45.20
2022-10-31T09:44:51.749Z,45.65
2022-10-31T09:47:41.509Z,46.10
2022-10-31T09:50:41.357Z,45.67
2022-10-31T09:53:35.102Z,46.03
2022-10-31T09:56:05.825Z,47.10
2022-10-31T09:58:40.369Z,46.78
2022-10-31T10:01:13.013Z,44.63
2022-10-31T10:03:47.915Z,45.20
2022-10-31T10:06:51.928Z,44.38
2022-10-31T10:09:37.534Z,44.83
2022-10-31T10:12:35.840Z,42.65
2022-10-31T10:15:38.926Z,44.47
2022-10-31T10:18:26.905Z,41.70
2022-10-31T10:21:08.940Z,41.92
2022-10-31T10:24:06.391Z,41.78
2022-10-31T10:26:38.604Z,40.22
2022-10-31T10:29:37.793Z,39.00
2022-10-31T10:32:21.912Z,37.80
2022-10-31T10:34:53.406Z,38.17
2022-10-31T10:37:35.009Z,37.42
2022-10-31T10:40:18.300Z,35.97
2022-10-31T10:43:15.207Z,34.38
2022-10-31T10:46:07.767Z,34.67
2022-10-31T10:48:45.356Z,32.45
2022-10-31T10:51:38.852Z,29.83
2022-10-31T10:54:15.086Z,28.33
2022-10-31T10:57:18.780Z,27.92
2022-10-31T10:59:47.013Z,28.35
2022-10-31T11:02:23.488Z,26.73
2022-10-31T11:04:53.889Z,26.20
2022-10-31T11:07:21.047Z,25.80
2022-10-31T11:09:48.062Z,25.85
2022-10-31T11:12:34.423Z,24.83
2022-10-31T11:15:08.232Z,24.73
2022-10-31T11:17:39.528Z,25.90
2022-10-31T11:20:18.102Z,23.98
2022-10-31T11:22:47.929Z,25.58
2022-10-31T11:25:32.911Z,24.40
2022-10-31T11:28:09.986Z,25.42
2022-10-31T11:30:47.315Z,24.13
2022-10-31T11:33:30.164Z,25.02
2022-10-31T11:35:58.476Z,23.63
2022-10-31T11:38:34.289Z,21.88
2022-10-31T11:41:11.634Z,21.73
2022-10-31T11:43:39.803Z,20.95
2022-10-31T11:46:12.627Z,22.60
2022-10-31T11:48:39.558Z,21.35
2022-10-31T11:51:06.398Z,22.55
2022-10-31T11:53:35.219Z,22.83
2022-10-31T11:56:11.065Z,21.75
2022-10-31T11:58:37.896Z,21.70
2022-10-31T12:01:04.855Z,21.67
2022-10-31T12:03:52.839Z,19.90
2022-10-31T12:06:26.159Z,20.83
2022-10-31T12:08:52.972Z,20.73
2022-10-31T12:11:46.394Z,21.75
2022-10-31T12:14:50.363Z,21.58
2022-10-31T12:17:25.739Z,20.65
2022-10-31T12:20:00.423Z,20.35
2022-10-31T12:23:06.087Z,19.05
2022-10-31T12:25:44.691Z,19.92
2022-10-31T12:28:54.103Z,17.75
2022-10-31T12:31:46.183Z,18.05
2022-10-31T12:34:21.994Z,18.48
2022-10-31T12:37:07.487Z,18.60
2022-10-31T12:39:40.368Z,18.85
2022-10-31T12:42:45.616Z,17.80
2022-10-31T12:45:32.680Z,17.50
2022-10-31T12:48:16.909Z,16.52
2022-10-31T12:50:58.666Z,16.88
2022-10-31T12:53:43.638Z,18.10
2022-10-31T12:56:40.877Z,18.10
2022-10-31T12:59:43.760Z,19.27
2022-10-31T13:02:30.382Z,19.95
2022-10-31T13:05:04.895Z,19.13
2022-10-31T13:07:44.540Z,18.15
2022-10-31T13:10:29.498Z,17.17
2022-10-31T13:13:03.875Z,17.90
2022-10-31T13:15:42.138Z,18.55
2022-10-31T13:18:15.796Z,18.40
2022-10-31T13:20:47.673Z,18.00
2022-10-31T13:23:51.995Z,17.90
2022-10-31T13:26:34.159Z,16.83
2022-10-31T13:29:03.592Z,15.25
2022-10-31T13:31:30.868Z,15.57
2022-10-31T13:34:03.253Z,15.25
2022-10-31T13:36:49.678Z,16.98
2022-10-31T13:39:32.758Z,16.38
2022-10-31T13:42:00.622Z,16.77
2022-10-31T13:44:31.324Z,16.20
2022-10-31T13:47:01.354Z,17.38
2022-10-31T13:49:31.190Z,19.23
2022-10-31T13:52:14.721Z,20.88
2022-10-31T13:54:56.631Z,23.08
2022-10-31T13:57:44.031Z,23.13
2022-10-31T14:00:19.862Z,21.08
2022-10-31T14:02:51.823Z,21.70
2022-10-31T14:05:27.759Z,21.95
2022-10-31T14:07:56.360Z,23.50
2022-10-31T14:10:32.141Z,23.33
2022-10-31T14:13:16.955Z,23.35
2022-10-31T14:15:58.179Z,24.10
2022-10-31T14:18:38.732Z,23.35
2022-10-31T14:21:30.421Z,24.85
2022-10-31T14:23:58.411Z,23.10
2022-10-31T14:26:29.250Z,22.98
2022-10-31T14:29:20.276Z,22.67
2022-10-31T14:32:16.063Z,21.98
2022-10-31T14:34:52.998Z,22.15
2022-10-31T14:37:38.451Z,21.70
2022-10-31T14:40:23.161Z,21.10
2022-10-31T14:42:59.424Z,21.20
2022-10-31T14:45:47.882Z,20.98
2022-10-31T14:48:26.124Z,22.35
2022-10-31T14:50:55.554Z,23.48
2022-10-31T14:53:34.524Z,23.45
2022-10-31T14:56:06.625Z,22.70
2022-10-31T14:58:45.107Z,23.90
2022-10-31T15:01:40.662Z,24.75
2022-10-31T15:04:23.682Z,23.70
2022-10-31T15:07:00.569Z,25.42
2022-10-31T15:09:31.713Z,24.77
2022-10-31T15:12:17.823Z,26.65
2022-10-31T15:14:44.627Z,26.08
2022-10-31T15:17:12.732Z,27.35
2022-10-31T15:19:39.893Z,25.48
2022-10-31T15:22:06.937Z,27.33
2022-10-31T15:24:39.761Z,27.95
2022-10-31T15:27:15.195Z,29.65
2022-10-31T15:29:57.641Z,28.83
2022-10-31T15:32:29.842Z,29.40
2022-10-31T15:34:57.959Z,30.75
2022-10-31T15:37:26.718Z,30.73
2022-10-31T15:39:53.751Z,31.42
2022-10-31T15:42:31.409Z,31.38
2022-10-31T15:45:05.714Z,32.05
2022-10-31T15:47:34.347Z,30.60
2022-10-31T15:50:03.947Z,31.48
2022-10-31T15:52:47.941Z,31.30
2022-10-31T15:55:22.178Z,30.65
2022-10-31T15:57:52.552Z,31.15
2022-10-31T16:00:30.297Z,30.23
2022-10-31T16:03:07.902Z,30.40
2022-10-31T16:05:50.539Z,32.70
2022-10-31T16:08:29.971Z,31.23
2022-10-31T16:10:57.820Z,29.92
2022-10-31T16:13:34.316Z,31.27
2022-10-31T16:16:33.079Z,30.25
2022-10-31T16:18:53.849Z,29.45
2022-10-31T16:21:33.167Z,31.60
2022-10-31T16:24:06.246Z,30.42
2022-10-31T16:26:34.640Z,30.17
2022-10-31T16:29:08.522Z,29.85
2022-10-31T16:31:41.042Z,30.88
2022-10-31T16:34:26.075Z,32.67
2022-10-31T16:36:56.463Z,31.23
2022-10-31T16:39:23.322Z,30.50
2022-10-31T16:41:53.485Z,33.35
2022-10-31T16:44:24.756Z,31.02
2022-10-31T16:47:10.994Z,33.10
2022-10-31T16:49:38.217Z,31.25
2022-10-31T16:52:05.948Z,33.10
2022-10-31T16:54:33.058Z,31.75
2022-10-31T16:57:01.412Z,29.58
2022-10-31T16:59:28.934Z,28.92
2022-10-31T17:01:56.852Z,28.13
2022-10-31T17:04:23.870Z,29.05
2022-10-31T17:06:50.758Z,29.17
2022-10-31T17:09:17.795Z,29.52
2022-10-31T17:11:49.701Z,27.25
2022-10-31T17:14:18.913Z,27.95
2022-10-31T17:16:45.712Z,29.92
2022-10-31T17:19:13.000Z,30.55
2022-10-31T17:21:40.646Z,28.45
2022-10-31T17:24:12.288Z,30.08
2022-10-31T17:26:39.153Z,29.42
2022-10-31T17:29:05.996Z,30.13
2022-10-31T17:31:36.368Z,33.15
2022-10-31T17:34:05.293Z,34.58
2022-10-31T17:36:35.637Z,35.78
2022-10-31T17:39:05.407Z,35.95
2022-10-31T17:41:32.356Z,37.13
2022-10-31T17:44:00.058Z,38.08
2022-10-31T17:46:28.408Z,36.83
2022-10-31T17:48:55.323Z,38.97
2022-10-31T17:51:22.334Z,36.65
2022-10-31T17:53:49.154Z,36.42
2022-10-31T17:56:16.066Z,39.75
2022-10-31T17:58:42.928Z,41.25
2022-10-31T18:01:15.217Z,41.95
2022-10-31T18:03:42.358Z,43.15
2022-10-31T18:06:10.558Z,44.83
2022-10-31T18:08:39.796Z,41.33
2022-10-31T18:11:14.838Z,44.25
2022-10-31T18:13:42.404Z,44.15
2022-10-31T18:16:16.261Z,46.78
2022-10-31T18:18:43.526Z,47.97
2022-10-31T18:21:10.988Z,50.20
2022-10-31T18:23:37.792Z,50.58
2022-10-31T18:26:04.925Z,49.97
2022-10-31T18:28:31.828Z,52.35
2022-10-31T18:31:00.653Z,53.67
2022-10-31T18:33:28.460Z,51.80
2022-10-31T18:35:55.836Z,53.38
2022-10-31T18:38:23.058Z,57.55
2022-10-31T18:40:53.530Z,57.15
2022-10-31T18:43:20.403Z,55.03
2022-10-31T18:45:49.389Z,56.03
2022-10-31T18:48:18.057Z,54.22
2022-10-31T18:50:45.117Z,55.70
2022-10-31T18:53:11.937Z,55.30
2022-10-31T18:55:43.992Z,52.63
2022-10-31T18:58:14.431Z,55.00
2022-10-31T19:00:41.387Z,53.42
2022-10-31T19:03:08.380Z,52.75
2022-10-31T19:05:35.345Z,53.30
2022-10-31T19:08:02.310Z,53.30
2022-10-31T19:10:29.413Z,55.03
2022-10-31T19:12:56.292Z,55.95
2022-10-31T19:15:23.191Z,51.10
2022-10-31T19:17:50.031Z,53.28
2022-10-31T19:20:17.036Z,56.33
2022-10-31T19:22:44.077Z,53.97
2022-10-31T19:25:11.326Z,56.23
2022-10-31T19:27:39.062Z,57.33
2022-10-31T19:30:06.967Z,55.77
2022-10-31T19:32:34.040Z,56.20
2022-10-31T19:35:01.049Z,56.87
2022-10-31T19:37:27.951Z,57.22
2022-10-31T19:39:54.926Z,57.15
2022-10-31T19:42:21.740Z,62.20
2022-10-31T19:44:48.675Z,61.60
2022-10-31T19:47:15.694Z,56.03
2022-10-31T19:49:42.640Z,56.72
2022-10-31T19:52:09.559Z,57.40
2022-10-31T19:54:36.505Z,59.92
2022-10-31T19:57:03.481Z,59.45
2022-10-31T19:59:33.911Z,60.53
2022-10-31T20:02:03.769Z,60.38
2022-10-31T20:04:30.651Z,62.45
2022-10-31T20:06:57.575Z,64.75
2022-10-31T20:09:25.065Z,64.03
2022-10-31T20:11:51.969Z,62.42
2022-10-31T20:14:18.935Z,64.35
2022-10-31T20:16:46.565Z,61.08
2022-10-31T20:19:13.899Z,57.47
2022-10-31T20:21:41.437Z,59.50
2022-10-31T20:24:09.959Z,62.83
2022-10-31T20:26:39.088Z,61.97
2022-10-31T20:29:05.995Z,58.58
2022-10-31T20:31:35.803Z,63.95
2022-10-31T20:34:02.724Z,64.55
2022-10-31T20:36:30.840Z,60.65
2022-10-31T20:38:58.656Z,61.83
2022-10-31T20:41:26.428Z,60.03
2022-10-31T20:43:53.542Z,61.30
2022-10-31T20:46:25.708Z,62.47
2022-10-31T20:48:54.015Z,58.80
2022-10-31T20:51:28.051Z,63.65
2022-10-31T20:53:59.389Z,59.53
2022-10-31T20:56:28.152Z,62.88
2022-10-31T20:58:56.317Z,62.17
2022-10-31T21:01:26.188Z,65.68
2022-10-31T21:03:53.617Z,66.90
2022-10-31T21:06:23.026Z,65.55
2022-10-31T21:08:51.462Z,66.03
2022-10-31T21:11:21.358Z,64.78
2022-10-31T21:13:49.286Z,63.70
2022-10-31T21:16:19.512Z,61.85
2022-10-31T21:18:47.560Z,60.28
2022-10-31T21:21:18.088Z,62.05
2022-10-31T21:23:45.503Z,62.38
2022-10-31T21:26:18.522Z,63.85
2022-10-31T21:28:45.408Z,62.67
2022-10-31T21:31:15.729Z,61.40
2022-10-31T21:33:43.568Z,61.20
2022-10-31T21:36:11.082Z,58.60
2022-10-31T21:38:38.610Z,59.85
2022-10-31T21:41:11.610Z,56.25
2022-10-31T21:43:42.351Z,58.35
2022-10-31T21:46:16.985Z,60.58
2022-10-31T21:48:44.306Z,57.08
2022-10-31T21:51:23.386Z,57.35
2022-10-31T21:54:09.402Z,59.72
2022-10-31T21:56:36.928Z,58.08
2022-10-31T21:59:04.910Z,58.17
2022-10-31T22:01:31.958Z,58.08
2022-10-31T22:03:59.749Z,57.47
2022-10-31T22:06:27.900Z,57.45
2022-10-31T22:08:54.842Z,58.13
2022-10-31T22:11:22.090Z,57.67
2022-10-31T22:13:50.134Z,58.72
2022-10-31T22:16:19.502Z,58.63
2022-10-31T22:18:47.221Z,56.35
2022-10-31T22:21:16.491Z,57.33
2022-10-31T22:23:44.337Z,58.20
2022-10-31T22:26:14.349Z,55.63
2022-10-31T22:28:47.219Z,56.40
2022-10-31T22:31:16.717Z,54.53
2022-10-31T22:33:44.344Z,57.58
2022-10-31T22:36:13.560Z,56.58
2022-10-31T22:38:41.451Z,56.85
2022-10-31T22:41:10.487Z,55.00
2022-10-31T22:43:37.326Z,55.58
2022-10-31T22:46:06.402Z,55.70
2022-10-31T22:48:38.720Z,54.80
2022-10-31T22:51:19.860Z,54.33
2022-10-31T22:53:47.361Z,48.72
2022-10-31T22:56:21.864Z,51.08
2022-10-31T22:58:48.933Z,52.80
2022-10-31T23:01:19.241Z,50.60
2022-10-31T23:03:47.476Z,52.92
2022-10-31T23:06:17.407Z,52.17
2022-10-31T23:08:44.949Z,49.08
2022-10-31T23:11:25.548Z,47.10
2022-10-31T23:14:10.039Z,48.95
2022-10-31T23:16:41.877Z,45.58
2022-10-31T23:19:10.864Z,46.83
2022-10-31T23:21:59.221Z,46.78
2022-10-31T23:24:25.997Z,46.13
2022-10-31T23:27:09.539Z,47.83
2022-10-31T23:29:56.929Z,47.78
2022-10-31T23:32:35.292Z,44.70
2022-10-31T23:35:07.695Z,45.10
2022-10-31T23:37:37.048Z,45.17
2022-10-31T23:40:04.901Z,43.50
2022-10-31T23:42:31.829Z,42.55
2022-10-31T23:44:58.597Z,42.83
2022-10-31T23:47:25.392Z,43.28
2022-10-31T23:49:52.178Z,44.38
2022-10-31T23:52:19.304Z,44.13
